createdAt,value
2022-09-26T00:00:10.058Z,993.7
2022-09-26T00:01:11.200Z,993.7
2022-09-26T00:02:13.083Z,993.7
2022-09-26T00:03:13.998Z,993.7
2022-09-26T00:04:15.039Z,993.7
2022-09-26T00:05:16.038Z,993.6
2022-09-26T00:06:17.020Z,993.7
2022-09-26T00:07:18.019Z,993.6
2022-09-26T00:08:19.123Z,993.6
2022-09-26T00:09:20.039Z,993.6
2022-09-26T00:10:21.046Z,993.6
2022-09-26T00:11:22.041Z,993.6
2022-09-26T00:12:23.038Z,993.6
2022-09-26T00:13:24.038Z,993.6
2022-09-26T00:14:24.999Z,993.5
2022-09-26T00:15:26.063Z,993.6
2022-09-26T00:16:27.023Z,993.5
2022-09-26T00:17:28.046Z,993.5
2022-09-26T00:18:29.099Z,993.5
2022-09-26T00:19:31.032Z,993.5
2022-09-26T00:20:33.058Z,993.4
2022-09-26T00:21:35.058Z,993.4
2022-09-26T00:22:36.039Z,993.4
2022-09-26T00:23:37.110Z,993.5
2022-09-26T00:24:38.046Z,993.5
2022-09-26T00:25:39.038Z,993.5
2022-09-26T00:26:40.139Z,993.5
2022-09-26T00:27:42.138Z,993.4
2022-09-26T00:28:44.080Z,993.4
2022-09-26T00:29:46.113Z,993.4
2022-09-26T00:30:48.163Z,993.4
2022-09-26T00:31:49.147Z,993.4
2022-09-26T00:32:49.964Z,993.5
2022-09-26T00:33:51.019Z,993.4
2022-09-26T00:34:52.019Z,993.4
2022-09-26T00:35:53.059Z,993.4
2022-09-26T00:36:54.125Z,993.4
2022-09-26T00:37:55.000Z,993.3
2022-09-26T00:38:56.190Z,993.3
2022-09-26T00:39:57.059Z,993.3
2022-09-26T00:40:58.156Z,993.3
2022-09-26T00:41:59.038Z,993.3
2022-09-26T00:43:00.058Z,993.3
2022-09-26T00:44:01.120Z,993.3
2022-09-26T00:45:02.080Z,993.3
2022-09-26T00:46:03.062Z,993.4
2022-09-26T00:47:04.058Z,993.3
2022-09-26T00:48:05.001Z,993.3
2022-09-26T00:49:06.079Z,993.4
2022-09-26T00:50:07.059Z,993.3
2022-09-26T00:51:08.039Z,993.3
2022-09-26T00:52:09.098Z,993.3
2022-09-26T00:53:10.038Z,993.3
2022-09-26T00:54:11.105Z,993.3
2022-09-26T00:55:12.039Z,993.2
2022-09-26T00:56:13.060Z,993.3
2022-09-26T00:57:14.006Z,993.2
2022-09-26T00:58:15.054Z,992.9
2022-09-26T00:59:16.083Z,993.1
2022-09-26T01:00:17.004Z,993.1
2022-09-26T01:04:15.027Z,993.2
2022-09-26T01:05:17.087Z,993.2
2022-09-26T01:06:18.052Z,993.2
2022-09-26T01:07:18.977Z,993.1
2022-09-26T01:08:20.031Z,993.2
2022-09-26T01:09:21.159Z,993.2
2022-09-26T01:10:22.031Z,993.2
2022-09-26T01:11:23.015Z,993.2
2022-09-26T01:12:24.011Z,993.1
2022-09-26T01:13:25.121Z,993.1
2022-09-26T01:14:26.318Z,993.1
2022-09-26T01:15:28.097Z,993.1
2022-09-26T01:16:29.120Z,993.1
2022-09-26T01:17:30.092Z,993.1
2022-09-26T01:18:32.032Z,993.1
2022-09-26T01:19:33.092Z,993.1
2022-09-26T01:20:34.054Z,993.1
2022-09-26T01:21:35.014Z,993.1
2022-09-26T01:22:36.052Z,993.2
2022-09-26T01:23:37.053Z,993.1
2022-09-26T01:24:38.260Z,993.1
2022-09-26T01:25:40.011Z,993
2022-09-26T01:26:41.072Z,993
2022-09-26T01:27:43.052Z,993
2022-09-26T01:28:44.022Z,992.9
2022-09-26T01:29:45.083Z,993
2022-09-26T01:30:47.146Z,992.9
2022-09-26T01:31:49.131Z,992.9
2022-09-26T01:32:51.161Z,992.9
2022-09-26T01:33:53.040Z,992.9
2022-09-26T01:34:54.073Z,992.2
2022-09-26T01:35:55.012Z,992.7
2022-09-26T01:36:56.152Z,992.8
2022-09-26T01:37:57.081Z,992.8
2022-09-26T01:38:58.041Z,992.8
2022-09-26T01:39:59.124Z,992.9
2022-09-26T01:41:01.114Z,992.8
2022-09-26T01:42:03.112Z,992.8
2022-09-26T01:43:05.151Z,992.8
2022-09-26T01:44:07.074Z,992.9
2022-09-26T01:45:08.080Z,992.9
2022-09-26T01:46:09.148Z,992.8
2022-09-26T01:47:10.091Z,992.8
2022-09-26T01:48:12.151Z,992.8
2022-09-26T01:49:14.183Z,992.9
2022-09-26T01:50:16.319Z,992.9
2022-09-26T01:51:18.092Z,992.8
2022-09-26T01:52:19.091Z,992.8
2022-09-26T01:53:20.072Z,992.8
2022-09-26T01:54:21.081Z,992.8
2022-09-26T01:55:22.197Z,992.8
2022-09-26T01:56:23.112Z,992.8
2022-09-26T01:57:24.073Z,992.9
2022-09-26T01:58:25.087Z,992.8
2022-09-26T01:59:26.051Z,992.8
2022-09-26T02:00:27.058Z,992.8
2022-09-26T02:01:28.175Z,992.8
2022-09-26T02:02:29.223Z,992.6
2022-09-26T02:03:31.112Z,992.7
2022-09-26T02:04:33.072Z,992.7
2022-09-26T02:05:34.015Z,992.7
2022-09-26T02:06:35.472Z,992.7
2022-09-26T02:07:37.093Z,992.7
2022-09-26T02:08:38.133Z,992.7
2022-09-26T02:09:39.064Z,992.8
2022-09-26T02:10:40.122Z,992.7
2022-09-26T02:11:41.128Z,992.7
2022-09-26T02:12:42.115Z,992.7
2022-09-26T02:13:43.080Z,992.7
2022-09-26T02:14:44.132Z,992.7
2022-09-26T02:15:45.052Z,992.7
2022-09-26T02:16:47.172Z,992.7
2022-09-26T02:17:48.071Z,992.7
2022-09-26T02:18:49.111Z,992.8
2022-09-26T02:19:50.041Z,992.7
2022-09-26T02:20:51.111Z,992.6
2022-09-26T02:21:52.103Z,992.7
2022-09-26T02:22:53.109Z,992.7
2022-09-26T02:23:54.132Z,992.7
2022-09-26T02:24:55.240Z,992.7
2022-09-26T02:25:57.202Z,992.6
2022-09-26T02:26:58.093Z,992.6
2022-09-26T02:27:59.162Z,992.6
2022-09-26T02:29:00.114Z,992.6
2022-09-26T02:30:02.192Z,992.6
2022-09-26T02:31:03.112Z,992.5
2022-09-26T02:32:04.146Z,992.5
2022-09-26T02:33:05.093Z,992.6
2022-09-26T02:34:06.113Z,992.5
2022-09-26T02:35:07.073Z,992.5
2022-09-26T02:36:08.112Z,992.5
2022-09-26T02:37:09.092Z,992.5
2022-09-26T02:38:10.117Z,992.5
2022-09-26T02:39:11.175Z,992.4
2022-09-26T02:40:12.166Z,992.5
2022-09-26T02:41:13.177Z,992.5
2022-09-26T02:42:14.114Z,992.6
2022-09-26T02:43:15.191Z,992.6
2022-09-26T02:44:17.113Z,992.1
2022-09-26T02:45:18.132Z,992.2
2022-09-26T02:46:19.223Z,992.4
2022-09-26T02:47:20.173Z,992.5
2022-09-26T02:48:21.132Z,992.5
2022-09-26T02:49:22.193Z,992.5
2022-09-26T02:50:23.160Z,992.5
2022-09-26T02:51:24.120Z,992.4
2022-09-26T02:52:25.150Z,992.5
2022-09-26T02:53:26.115Z,992.5
2022-09-26T02:54:27.152Z,992.5
2022-09-26T02:55:28.173Z,992.5
2022-09-26T02:56:29.135Z,992.5
2022-09-26T02:57:30.111Z,992.5
2022-09-26T02:58:31.093Z,991.9
2022-09-26T02:59:32.112Z,992.4
2022-09-26T03:00:33.112Z,992.4
2022-09-26T03:01:34.223Z,992.5
2022-09-26T03:02:35.194Z,992.5
2022-09-26T03:03:36.131Z,992.6
2022-09-26T03:04:37.206Z,992.2
2022-09-26T03:05:38.091Z,992.4
2022-09-26T03:06:39.093Z,992.5
2022-09-26T03:07:40.112Z,992.5
2022-09-26T03:08:41.109Z,992.5
2022-09-26T03:09:42.172Z,992.5
2022-09-26T03:10:43.160Z,992.4
2022-09-26T03:11:44.158Z,992.4
2022-09-26T03:12:45.072Z,992.4
2022-09-26T03:13:46.071Z,992.4
2022-09-26T03:14:47.116Z,992.4
2022-09-26T03:15:48.172Z,992.4
2022-09-26T03:16:49.195Z,992.4
2022-09-26T03:17:50.112Z,992.4
2022-09-26T03:18:51.092Z,992.5
2022-09-26T03:19:52.152Z,992.4
2022-09-26T03:20:53.112Z,992.4
2022-09-26T03:21:54.127Z,992.4
2022-09-26T03:22:55.212Z,992.4
2022-09-26T03:23:56.142Z,992.4
2022-09-26T03:24:57.111Z,992.4
2022-09-26T03:25:58.194Z,992.4
2022-09-26T03:26:59.107Z,992.4
2022-09-26T03:28:00.094Z,992.4
2022-09-26T03:29:01.257Z,992.4
2022-09-26T03:30:03.192Z,992.3
2022-09-26T03:31:05.131Z,992.3
2022-09-26T03:32:06.255Z,992.3
2022-09-26T03:33:08.169Z,992.3
2022-09-26T03:34:09.197Z,992.3
2022-09-26T03:35:10.112Z,992.3
2022-09-26T03:36:11.140Z,992.3
2022-09-26T03:37:12.211Z,992.3
2022-09-26T03:38:14.460Z,992.3
2022-09-26T03:39:14.279Z,992.3
2022-09-26T03:40:15.240Z,992.3
2022-09-26T03:41:16.249Z,992.3
2022-09-26T03:42:18.196Z,992.3
2022-09-26T03:43:19.132Z,992.3
2022-09-26T03:44:20.135Z,992.3
2022-09-26T03:45:21.247Z,992.3
2022-09-26T03:46:22.094Z,992.3
2022-09-26T03:47:23.192Z,992.3
2022-09-26T03:48:24.180Z,992.3
2022-09-26T03:49:25.139Z,992.3
2022-09-26T03:50:26.160Z,992.3
2022-09-26T03:51:27.209Z,992.4
2022-09-26T03:52:28.152Z,992.3
2022-09-26T03:53:29.172Z,992.3
2022-09-26T03:54:30.142Z,992.2
2022-09-26T03:55:31.192Z,992.3
2022-09-26T03:56:32.155Z,992.3
2022-09-26T03:57:33.262Z,992.2
2022-09-26T03:58:34.173Z,992.1
2022-09-26T03:59:35.196Z,992.2
2022-09-26T04:00:36.252Z,992.2
2022-09-26T04:01:38.168Z,992.1
2022-09-26T04:02:40.228Z,992.1
2022-09-26T04:03:43.164Z,992.2
2022-09-26T04:04:42.153Z,992.2
2022-09-26T04:05:43.221Z,992.2
2022-09-26T04:06:44.151Z,992.1
2022-09-26T04:07:45.079Z,992.2
2022-09-26T04:08:46.152Z,992.2
2022-09-26T04:09:47.172Z,992.1
2022-09-26T04:10:48.134Z,992.1
2022-09-26T04:11:49.192Z,992.2
2022-09-26T04:12:50.312Z,992.1
2022-09-26T04:13:53.150Z,992.1
2022-09-26T04:14:52.141Z,992
2022-09-26T04:15:53.191Z,992
2022-09-26T04:16:54.214Z,992
2022-09-26T04:17:56.252Z,992
2022-09-26T04:18:58.153Z,992
2022-09-26T04:19:59.133Z,991.8
2022-09-26T04:21:00.174Z,991.9
2022-09-26T04:22:02.252Z,992
2022-09-26T04:23:04.132Z,992
2022-09-26T04:24:05.192Z,992
2022-09-26T04:25:06.173Z,991.8
2022-09-26T04:26:07.240Z,991.9
2022-09-26T04:27:08.137Z,991.8
2022-09-26T04:28:09.263Z,991.9
2022-09-26T04:29:10.173Z,992
2022-09-26T04:30:11.232Z,992
2022-09-26T04:31:12.366Z,992
2022-09-26T04:32:14.192Z,992
2022-09-26T04:33:15.175Z,991.9
2022-09-26T04:34:17.500Z,991.9
2022-09-26T04:35:19.192Z,991.9
2022-09-26T04:36:20.171Z,991.9
2022-09-26T04:37:21.191Z,991.9
2022-09-26T04:38:22.193Z,991.8
2022-09-26T04:39:23.179Z,991.8
2022-09-26T04:40:24.306Z,991.9
2022-09-26T04:41:25.195Z,991.9
2022-09-26T04:42:26.212Z,991.9
2022-09-26T04:43:27.279Z,991.8
2022-09-26T04:44:28.180Z,991.8
2022-09-26T04:45:29.232Z,991.5
2022-09-26T04:46:31.108Z,991.8
2022-09-26T04:47:32.199Z,991.8
2022-09-26T04:48:34.291Z,991.8
2022-09-26T04:49:36.252Z,991.8
2022-09-26T04:50:38.210Z,991.9
2022-09-26T04:51:40.056Z,991.8
2022-09-26T04:52:41.172Z,991.8
2022-09-26T04:53:42.181Z,991.8
2022-09-26T04:54:43.152Z,991.8
2022-09-26T04:55:44.212Z,991.8
2022-09-26T04:56:45.137Z,991.9
2022-09-26T04:57:46.174Z,991.8
2022-09-26T04:58:47.247Z,991.8
2022-09-26T04:59:48.192Z,991.8
2022-09-26T05:00:49.282Z,991.8
2022-09-26T05:01:50.261Z,991.8
2022-09-26T05:02:51.213Z,991.8
2022-09-26T05:03:52.252Z,991.8
2022-09-26T05:04:53.233Z,991.8
2022-09-26T05:05:54.242Z,991.8
2022-09-26T05:06:56.212Z,991.8
2022-09-26T05:07:57.201Z,991.8
2022-09-26T05:08:58.234Z,991.8
2022-09-26T05:09:59.153Z,991.8
2022-09-26T05:11:00.272Z,991.9
2022-09-26T05:12:01.272Z,991.9
2022-09-26T05:13:02.227Z,991.9
2022-09-26T05:14:03.353Z,991.8
2022-09-26T05:15:05.222Z,991.8
2022-09-26T05:16:06.330Z,991.8
2022-09-26T05:17:07.132Z,991.8
2022-09-26T05:18:08.192Z,991.8
2022-09-26T05:19:09.257Z,991.9
2022-09-26T05:20:10.293Z,991.9
2022-09-26T05:21:11.217Z,991.9
2022-09-26T05:22:12.212Z,991.9
2022-09-26T05:23:13.320Z,991.8
2022-09-26T05:24:15.272Z,991.8
2022-09-26T05:25:16.199Z,991.8
2022-09-26T05:26:18.251Z,991.8
2022-09-26T05:27:19.172Z,991.8
2022-09-26T05:28:20.211Z,991.8
2022-09-26T05:29:21.276Z,991.8
2022-09-26T05:30:22.252Z,991.8
2022-09-26T05:31:23.290Z,991.8
2022-09-26T05:32:24.196Z,991.8
2022-09-26T05:33:25.192Z,991.8
2022-09-26T05:34:26.197Z,991.8
2022-09-26T05:35:27.239Z,991.8
2022-09-26T05:36:28.320Z,991.8
2022-09-26T05:37:30.252Z,991.8
2022-09-26T05:38:32.231Z,991.8
2022-09-26T05:39:36.753Z,991.8
2022-09-26T05:40:36.266Z,991.9
2022-09-26T05:41:37.213Z,991.9
2022-09-26T05:42:38.194Z,991.9
2022-09-26T05:43:39.232Z,991.9
2022-09-26T05:44:40.259Z,991.9
2022-09-26T05:45:41.261Z,991.9
2022-09-26T05:46:42.286Z,991.9
2022-09-26T05:47:43.192Z,991.9
2022-09-26T05:48:44.153Z,991.9
2022-09-26T05:49:45.191Z,991.9
2022-09-26T05:50:46.272Z,991.9
2022-09-26T05:51:47.271Z,991.8
2022-09-26T05:52:48.213Z,991.9
2022-09-26T05:53:49.196Z,991.8
2022-09-26T05:54:50.226Z,991.9
2022-09-26T05:55:51.192Z,991.8
2022-09-26T05:56:52.211Z,991.8
2022-09-26T05:57:53.279Z,991.8
2022-09-26T05:58:54.213Z,991.9
2022-09-26T05:59:55.246Z,991.9
2022-09-26T06:00:56.273Z,991.8
2022-09-26T06:01:57.351Z,991.8
2022-09-26T06:02:59.252Z,991.8
2022-09-26T06:04:00.306Z,991.8
2022-09-26T06:05:01.325Z,991.8
2022-09-26T06:06:02.372Z,991.8
2022-09-26T06:07:03.751Z,991.8
2022-09-26T06:08:05.233Z,991.8
2022-09-26T06:09:06.302Z,991.9
2022-09-26T06:10:07.253Z,991.9
2022-09-26T06:11:08.244Z,991.9
2022-09-26T06:12:09.292Z,991.9
2022-09-26T06:13:10.231Z,991.9
2022-09-26T06:14:11.229Z,991.9
2022-09-26T06:15:12.277Z,991.9
2022-09-26T06:16:13.332Z,991.9
2022-09-26T06:17:14.253Z,991.9
2022-09-26T06:18:15.242Z,991.9
2022-09-26T06:19:19.432Z,991.9
2022-09-26T06:20:17.553Z,991.9
2022-09-26T06:21:19.331Z,991.9
2022-09-26T06:22:21.319Z,991.9
2022-09-26T06:23:23.274Z,991.9
2022-09-26T06:24:24.211Z,991.9
2022-09-26T06:25:25.260Z,991.9
2022-09-26T06:26:26.212Z,991.9
2022-09-26T06:27:27.190Z,992
2022-09-26T06:28:28.151Z,992
2022-09-26T06:29:29.180Z,992
2022-09-26T06:30:30.299Z,992
2022-09-26T06:31:31.410Z,992
2022-09-26T06:32:33.212Z,992
2022-09-26T06:33:34.212Z,992.1
2022-09-26T06:34:35.271Z,992
2022-09-26T06:35:36.214Z,992
2022-09-26T06:36:37.232Z,992
2022-09-26T06:37:38.232Z,992
2022-09-26T06:38:39.211Z,992
2022-09-26T06:39:40.260Z,992
2022-09-26T06:40:41.327Z,992
2022-09-26T06:41:42.281Z,992
2022-09-26T06:42:43.232Z,992
2022-09-26T06:43:44.241Z,992
2022-09-26T06:44:45.200Z,992
2022-09-26T06:45:46.438Z,992
2022-09-26T06:46:47.334Z,992.1
2022-09-26T06:47:49.273Z,992
2022-09-26T06:48:50.260Z,992
2022-09-26T06:49:51.193Z,992
2022-09-26T06:50:52.251Z,992
2022-09-26T06:51:53.214Z,992.1
2022-09-26T06:52:54.333Z,992.1
2022-09-26T06:53:56.288Z,992.1
2022-09-26T06:54:57.298Z,992.1
2022-09-26T06:55:58.212Z,992
2022-09-26T06:56:59.254Z,992
2022-09-26T06:58:00.293Z,992.1
2022-09-26T06:59:01.259Z,992.1
2022-09-26T07:00:04.912Z,992.1
2022-09-26T07:01:06.456Z,992.1
2022-09-26T07:02:07.403Z,992.1
2022-09-26T07:03:08.306Z,992.1
2022-09-26T07:04:09.252Z,992.2
2022-09-26T07:05:10.279Z,992.1
2022-09-26T07:06:11.212Z,992.1
2022-09-26T07:07:12.211Z,992.1
2022-09-26T07:08:13.293Z,992.1
2022-09-26T07:09:14.342Z,992.1
2022-09-26T07:10:15.333Z,992.1
2022-09-26T07:11:46.169Z,992.2
2022-09-26T07:12:19.292Z,992.1
2022-09-26T07:13:33.452Z,992.1
2022-09-26T07:14:35.322Z,992.2
2022-09-26T07:15:37.291Z,992.2
2022-09-26T07:16:39.320Z,992.2
2022-09-26T07:17:41.312Z,992.1
2022-09-26T07:18:43.280Z,992.2
2022-09-26T07:19:44.821Z,992.1
2022-09-26T07:20:46.251Z,992.1
2022-09-26T07:21:47.233Z,992.1
2022-09-26T07:22:48.260Z,992.1
2022-09-26T07:23:49.292Z,992.1
2022-09-26T07:24:50.312Z,992
2022-09-26T07:25:51.197Z,992.1
2022-09-26T07:26:52.172Z,992
2022-09-26T07:27:53.292Z,992.1
2022-09-26T07:28:54.832Z,992.1
2022-09-26T07:29:55.353Z,992.1
2022-09-26T07:30:57.295Z,992.1
2022-09-26T07:31:58.355Z,992.1
2022-09-26T07:32:59.272Z,992.1
2022-09-26T07:34:00.334Z,992.3
2022-09-26T07:35:01.301Z,992.1
2022-09-26T07:36:05.373Z,992.1
2022-09-26T07:37:04.336Z,992
2022-09-26T07:38:05.258Z,992
2022-09-26T07:39:06.319Z,992.1
2022-09-26T07:40:07.381Z,992
2022-09-26T07:41:09.325Z,992
2022-09-26T07:42:12.132Z,992
2022-09-26T07:43:19.908Z,992.1
2022-09-26T07:45:29.224Z,992
2022-09-26T07:46:21.048Z,992.1
2022-09-26T07:47:22.265Z,992
2022-09-26T07:48:23.311Z,992
2022-09-26T07:49:24.279Z,992
2022-09-26T07:50:25.311Z,992
2022-09-26T07:51:41.053Z,992
2022-09-26T07:52:42.276Z,991.9
2022-09-26T07:53:43.360Z,992
2022-09-26T07:54:44.265Z,991.9
2022-09-26T07:55:45.261Z,992
2022-09-26T07:56:46.260Z,991.9
2022-09-26T07:57:47.297Z,991.9
2022-09-26T07:58:48.292Z,992
2022-09-26T07:59:51.311Z,992
2022-09-26T08:00:52.331Z,992
2022-09-26T08:01:54.321Z,992
2022-09-26T08:02:55.435Z,992
2022-09-26T08:03:56.339Z,992
2022-09-26T08:05:00.847Z,992
2022-09-26T08:05:58.300Z,992
2022-09-26T08:06:59.256Z,992
2022-09-26T08:08:00.353Z,992.1
2022-09-26T08:09:01.713Z,992.1
2022-09-26T08:10:03.327Z,992
2022-09-26T08:11:05.292Z,992
2022-09-26T08:12:22.300Z,992.1
2022-09-26T08:13:23.389Z,992
2022-09-26T08:14:25.319Z,992
2022-09-26T08:16:53.331Z,992.1
2022-09-26T08:18:12.387Z,992.1
2022-09-26T08:19:28.354Z,992
2022-09-26T08:20:58.360Z,992
2022-09-26T08:22:01.173Z,992
2022-09-26T08:23:04.871Z,992
2022-09-26T08:24:21.295Z,992
2022-09-26T08:25:37.308Z,991.9
2022-09-26T08:26:43.360Z,992
2022-09-26T08:27:55.729Z,992
2022-09-26T08:28:57.273Z,991.9
2022-09-26T08:30:28.743Z,991.9
2022-09-26T08:31:31.292Z,991.8
2022-09-26T08:32:34.375Z,991.8
2022-09-26T08:33:36.355Z,991.8
2022-09-26T08:34:50.172Z,991.9
2022-09-26T08:35:51.293Z,991.9
2022-09-26T08:37:05.311Z,991.9
2022-09-26T08:38:06.312Z,992
2022-09-26T08:39:23.852Z,992
2022-09-26T08:40:25.523Z,992
2022-09-26T08:42:56.383Z,992
2022-09-26T08:44:13.192Z,992
2022-09-26T08:45:14.331Z,991.9
2022-09-26T08:46:15.688Z,991.9
2022-09-26T08:47:17.762Z,991.9
2022-09-26T08:48:19.452Z,991.9
2022-09-26T08:49:21.396Z,991.9
2022-09-26T08:50:23.314Z,991.9
2022-09-26T08:51:29.299Z,991.9
2022-09-26T08:52:28.315Z,991.9
2022-09-26T08:53:29.333Z,991.9
2022-09-26T08:54:30.332Z,991.9
2022-09-26T08:55:31.277Z,991.9
2022-09-26T08:56:32.409Z,991.8
2022-09-26T08:57:34.331Z,991.8
2022-09-26T08:58:36.332Z,991.8
2022-09-26T08:59:37.297Z,991.8
2022-09-26T09:00:38.331Z,991.8
2022-09-26T09:01:39.523Z,991.8
2022-09-26T09:02:40.465Z,991.8
2022-09-26T09:03:41.292Z,991.8
2022-09-26T09:04:42.316Z,991.8
2022-09-26T09:05:43.332Z,991.8
2022-09-26T09:06:59.433Z,991.8
2022-09-26T09:08:01.273Z,991.7
2022-09-26T09:09:02.336Z,991.7
2022-09-26T09:10:04.391Z,991.8
2022-09-26T09:11:06.392Z,991.7
2022-09-26T09:12:07.371Z,991.7
2022-09-26T09:13:08.352Z,991.7
2022-09-26T09:14:10.381Z,991.7
2022-09-26T09:15:26.510Z,991.7
2022-09-26T09:16:11.402Z,991.7
2022-09-26T09:17:12.372Z,991.8
2022-09-26T09:18:13.870Z,991.7
2022-09-26T09:19:14.353Z,991.8
2022-09-26T09:20:15.342Z,991.8
2022-09-26T09:21:16.356Z,991.8
2022-09-26T09:22:17.872Z,991.8
2022-09-26T09:23:19.333Z,991.8
2022-09-26T09:24:20.311Z,991.8
2022-09-26T09:25:21.319Z,991.8
2022-09-26T09:28:25.322Z,991.7
2022-09-26T09:29:26.292Z,991.7
2022-09-26T09:30:27.392Z,991.7
2022-09-26T09:31:28.473Z,991.7
2022-09-26T09:32:30.352Z,991.7
2022-09-26T09:33:31.352Z,991.7
2022-09-26T09:34:32.298Z,991.8
2022-09-26T09:35:33.384Z,991.8
2022-09-26T09:36:34.371Z,991.7
2022-09-26T09:37:36.293Z,991.8
2022-09-26T09:38:37.291Z,991.8
2022-09-26T09:39:38.333Z,991.9
2022-09-26T09:40:39.386Z,991.8
2022-09-26T09:41:40.391Z,991.9
2022-09-26T09:42:41.434Z,991.9
2022-09-26T09:43:42.336Z,991.9
2022-09-26T09:44:46.604Z,991.4
2022-09-26T09:45:44.372Z,991.8
2022-09-26T09:46:45.381Z,991.9
2022-09-26T09:47:46.399Z,992
2022-09-26T09:48:47.334Z,992
2022-09-26T09:49:48.311Z,992
2022-09-26T09:50:49.348Z,991.6
2022-09-26T09:51:50.412Z,991.8
2022-09-26T09:52:52.372Z,991.9
2022-09-26T09:53:53.351Z,991.9
2022-09-26T09:54:54.311Z,991.9
2022-09-26T09:55:55.432Z,991.9
2022-09-26T09:56:56.372Z,991.8
2022-09-26T09:57:57.393Z,991.9
2022-09-26T09:58:58.312Z,991.9
2022-09-26T09:59:59.352Z,991.9
2022-09-26T10:01:00.371Z,991.3
2022-09-26T10:02:01.453Z,991.7
2022-09-26T10:03:02.521Z,991.9
2022-09-26T10:04:04.400Z,991.9
2022-09-26T10:05:06.355Z,991.9
2022-09-26T10:06:10.503Z,991.9
2022-09-26T10:07:08.339Z,992
2022-09-26T10:08:09.374Z,991.9
2022-09-26T10:09:35.048Z,992
2022-09-26T10:10:11.372Z,992
2022-09-26T10:11:12.312Z,992
2022-09-26T10:12:13.334Z,992
2022-09-26T10:13:14.411Z,992
2022-09-26T10:14:15.701Z,992.1
2022-09-26T10:15:17.914Z,992
2022-09-26T10:16:19.364Z,991.5
2022-09-26T10:17:20.406Z,991.9
2022-09-26T10:18:25.950Z,992.1
2022-09-26T10:19:23.373Z,992.1
2022-09-26T10:20:24.331Z,992.1
2022-09-26T10:21:25.316Z,991.5
2022-09-26T10:22:26.416Z,991.9
2022-09-26T10:23:27.334Z,992
2022-09-26T10:24:28.293Z,992.1
2022-09-26T10:25:29.371Z,992.1
2022-09-26T10:26:31.482Z,992.1
2022-09-26T10:27:31.451Z,992.1
2022-09-26T10:28:32.431Z,992.1
2022-09-26T10:29:34.410Z,992.1
2022-09-26T10:30:36.419Z,992.1
2022-09-26T10:31:41.498Z,992.1
2022-09-26T10:32:38.351Z,992.1
2022-09-26T10:33:39.391Z,992.1
2022-09-26T10:34:40.332Z,992.1
2022-09-26T10:35:41.365Z,992.1
2022-09-26T10:36:42.398Z,992.1
2022-09-26T10:37:43.352Z,992.1
2022-09-26T10:38:44.391Z,992.1
2022-09-26T10:39:45.412Z,992.1
2022-09-26T10:40:46.479Z,992.1
2022-09-26T10:41:47.391Z,992.1
2022-09-26T10:42:48.440Z,992.1
2022-09-26T10:43:50.399Z,992.1
2022-09-26T10:44:51.392Z,992.2
2022-09-26T10:45:52.435Z,992.1
2022-09-26T10:46:53.477Z,992.2
2022-09-26T10:47:54.413Z,992.2
2022-09-26T10:48:56.431Z,992.1
2022-09-26T10:49:58.377Z,992.1
2022-09-26T10:50:59.412Z,992.1
2022-09-26T10:52:01.414Z,992.1
2022-09-26T10:53:01.412Z,992.1
2022-09-26T10:54:02.415Z,992.1
2022-09-26T10:55:03.542Z,992.1
2022-09-26T10:56:05.431Z,992.1
2022-09-26T10:57:06.328Z,992.1
2022-09-26T10:58:11.478Z,992.1
2022-09-26T10:59:08.400Z,992
2022-09-26T11:00:09.409Z,992
2022-09-26T11:01:10.453Z,992
2022-09-26T11:02:11.427Z,992
2022-09-26T11:03:12.458Z,991.7
2022-09-26T11:04:13.530Z,991.9
2022-09-26T11:05:14.452Z,992
2022-09-26T11:06:19.375Z,992
2022-09-26T11:07:17.943Z,991.9
2022-09-26T11:08:19.351Z,991.9
2022-09-26T11:09:20.356Z,991.9
2022-09-26T11:10:21.391Z,992
2022-09-26T11:11:22.414Z,992
2022-09-26T11:12:23.375Z,991.9
2022-09-26T11:13:24.328Z,991.9
2022-09-26T11:14:28.175Z,992
2022-09-26T11:15:26.399Z,991.9
2022-09-26T11:16:27.463Z,991.9
2022-09-26T11:17:28.793Z,991.9
2022-09-26T11:18:30.343Z,992
2022-09-26T11:19:31.401Z,991.9
2022-09-26T11:20:32.479Z,991.9
2022-09-26T11:21:33.452Z,992
2022-09-26T11:22:35.437Z,992.1
2022-09-26T11:23:37.496Z,992
2022-09-26T11:24:38.591Z,991.9
2022-09-26T11:25:40.392Z,991.9
2022-09-26T11:26:41.427Z,991.9
2022-09-26T11:27:42.340Z,991.9
2022-09-26T11:28:43.392Z,991.9
2022-09-26T11:29:44.365Z,991.9
2022-09-26T11:30:45.480Z,991.9
2022-09-26T11:31:46.442Z,991.9
2022-09-26T11:32:47.354Z,991.9
2022-09-26T11:33:48.486Z,991.9
2022-09-26T11:34:50.432Z,991.9
2022-09-26T11:35:52.594Z,991.9
2022-09-26T11:36:54.352Z,991.9
2022-09-26T11:37:55.498Z,991.9
2022-09-26T11:38:57.452Z,991.9
2022-09-26T11:39:59.513Z,991.9
2022-09-26T11:41:01.417Z,991.9
2022-09-26T11:42:02.512Z,991.6
2022-09-26T11:43:03.432Z,991.8
2022-09-26T11:44:04.331Z,992
2022-09-26T11:45:05.492Z,991.9
2022-09-26T11:46:07.517Z,991.9
2022-09-26T11:47:09.480Z,991.9
2022-09-26T11:48:11.472Z,991.8
2022-09-26T11:49:13.573Z,991.8
2022-09-26T11:50:15.480Z,991.8
2022-09-26T11:51:17.393Z,991.8
2022-09-26T11:52:18.569Z,991.8
2022-09-26T11:53:20.407Z,991.8
2022-09-26T11:54:21.472Z,991.8
2022-09-26T11:55:22.499Z,991.7
2022-09-26T11:56:23.442Z,991.7
2022-09-26T11:57:24.452Z,991.7
2022-09-26T11:58:25.411Z,991.7
2022-09-26T11:59:26.432Z,991.6
2022-09-26T12:00:27.750Z,991.6
2022-09-26T12:01:29.393Z,991.4
2022-09-26T12:02:30.547Z,991.6
2022-09-26T12:03:31.604Z,991.6
2022-09-26T12:04:32.432Z,991.6
2022-09-26T12:05:33.496Z,991.6
2022-09-26T12:06:35.614Z,991.6
2022-09-26T12:07:37.578Z,991.6
2022-09-26T12:08:39.584Z,991.7
2022-09-26T12:09:41.452Z,991.7
2022-09-26T12:10:42.351Z,991.7
2022-09-26T12:11:43.355Z,991.7
2022-09-26T12:12:44.361Z,991.6
2022-09-26T12:13:45.377Z,991.6
2022-09-26T12:14:46.513Z,991.7
2022-09-26T12:15:48.518Z,991.6
2022-09-26T12:16:50.456Z,991.6
2022-09-26T12:17:52.474Z,991.6
2022-09-26T12:18:54.372Z,991.6
2022-09-26T12:19:55.454Z,991.6
2022-09-26T12:20:56.484Z,991.6
2022-09-26T12:21:57.452Z,991.6
2022-09-26T12:22:58.436Z,991.6
2022-09-26T12:23:59.426Z,991.7
2022-09-26T12:25:00.487Z,991.6
2022-09-26T12:26:02.553Z,991.7
2022-09-26T12:27:04.511Z,991.6
2022-09-26T12:28:06.494Z,991.6
2022-09-26T12:29:07.492Z,991.6
2022-09-26T12:30:08.441Z,991.7
2022-09-26T12:31:09.546Z,991.7
2022-09-26T12:32:10.420Z,991.6
2022-09-26T12:33:11.452Z,991.6
2022-09-26T12:34:12.478Z,991.5
2022-09-26T12:35:13.496Z,991.6
2022-09-26T12:36:15.473Z,991.5
2022-09-26T12:37:16.441Z,991.6
2022-09-26T12:38:17.452Z,991.5
2022-09-26T12:39:18.470Z,991.5
2022-09-26T12:40:19.513Z,991.5
2022-09-26T12:41:20.455Z,991.4
2022-09-26T12:42:22.345Z,991.4
2022-09-26T12:43:23.452Z,991.4
2022-09-26T12:44:24.374Z,991.5
2022-09-26T12:45:25.412Z,991.3
2022-09-26T12:46:26.496Z,991.3
2022-09-26T12:47:27.452Z,991.3
2022-09-26T12:48:28.432Z,991.4
2022-09-26T12:49:29.374Z,991.4
2022-09-26T12:50:30.432Z,991.4
2022-09-26T12:51:31.432Z,991.4
2022-09-26T12:52:32.569Z,991.3
2022-09-26T12:53:34.432Z,991.4
2022-09-26T12:54:36.419Z,991.4
2022-09-26T12:55:37.455Z,991.4
2022-09-26T12:56:38.776Z,991.3
2022-09-26T12:57:41.533Z,991.4
2022-09-26T12:58:42.512Z,991.4
2022-09-26T12:59:44.472Z,991.5
2022-09-26T13:00:45.443Z,991.4
2022-09-26T13:01:46.594Z,991.4
2022-09-26T13:02:48.582Z,991.4
2022-09-26T13:03:50.495Z,991.3
2022-09-26T13:04:52.412Z,991.3
2022-09-26T13:05:53.443Z,991.3
2022-09-26T13:07:14.618Z,991.3
2022-09-26T13:07:56.532Z,991.3
2022-09-26T13:08:58.415Z,991.3
2022-09-26T13:09:59.487Z,991.3
2022-09-26T13:11:00.415Z,991.2
2022-09-26T13:12:01.473Z,991.3
2022-09-26T13:13:02.556Z,991.2
2022-09-26T13:14:04.553Z,991.2
2022-09-26T13:15:06.517Z,991.2
2022-09-26T13:16:08.520Z,991.2
2022-09-26T13:17:09.492Z,991.2
2022-09-26T13:18:10.512Z,991.2
2022-09-26T13:19:11.475Z,991.2
2022-09-26T13:20:12.472Z,991.2
2022-09-26T13:21:13.434Z,991.2
2022-09-26T13:22:14.438Z,991.2
2022-09-26T13:23:15.457Z,991.1
2022-09-26T13:24:16.437Z,991.1
2022-09-26T13:25:17.544Z,991.1
2022-09-26T13:26:18.409Z,990.9
2022-09-26T13:27:19.499Z,991
2022-09-26T13:28:20.458Z,991